Thomson Spirit — 9HA2336 — position and weather

sailwx.info

Track history (hours):
 
Tides and Currents Weather Stations Pressure Air Temp Water Temp Dewpoint Dewpoint Depression Visibility Wind Speed Wind Dir Waves Ship Positions

Thomson Spirit

Last reported at 2016-Aug-26 20:31 UTC. Time now 2016-Aug-27 09:52 UTC.
Position N 37°43' W 009°17'.

Length 214 m; draft 8 m.

Type: Passenger vessel. MMSI: 248368000.

Date/timePositionNaut miles runAvg speedWind from/ knotsBaromVisibWave heightAir tempDewpointWater temp
2016-Aug-26 20:31N 37°43' W 009°17'1616.3
2016-Aug-26 19:33N 37°58' W 009°18'1716.5
2016-Aug-26 18:33N 38°15' W 009°19'1615.9
2016-Aug-26 17:34N 38°31' W 009°20'1211.9
2016-Aug-26 16:34N 38°41' W 009°13'5 4.5
2016-Aug-26 15:32N 38°43' W 009°07'0 0.0
2016-Aug-26 14:33N 38°43' W 009°07'0 0.0
2016-Aug-26 13:33N 38°43' W 009°07'0 0.0
2016-Aug-26 12:33N 38°43' W 009°07'0 0.0
2016-Aug-26 11:32N 38°43' W 009°07'0 0.0
2016-Aug-26 10:33N 38°43' W 009°07'0 0.0
2016-Aug-26 09:33N 38°43' W 009°07'0 0.0
2016-Aug-26 08:33N 38°43' W 009°07'0 0.0
2016-Aug-26 07:33N 38°43' W 009°07'0 0.1
2016-Aug-26 06:33N 38°43' W 009°07'2211.1
2016-Aug-26 04:34N 38°38' W 009°35'1110.7
2016-Aug-26 03:34N 38°46' W 009°44'1313.2
2016-Aug-26 02:33N 38°59' W 009°44'1313.3
2016-Aug-26 01:34N 39°12' W 009°44'1813.3
2016-Aug-26 00:11N 39°31' W 009°44'913.2
2016-Aug-25 23:32N 39°38' W 009°39'1313.6
2016-Aug-25 22:33N 39°50' W 009°32'1613.7
2016-Aug-25 21:22N 40°05' W 009°22'1714.0
2016-Aug-25 20:09N 40°20' W 009°13'81 3.9
2016-Aug-24 23:28N 41°42' W 009°08'6 6.4
2016-Aug-24 22:33N 41°47' W 009°06'7 6.6
2016-Aug-24 21:31N 41°54' W 009°04'7 6.2
2016-Aug-24 20:26N 42°00' W 009°02'7 6.0
2016-Aug-24 19:18N 42°07' W 009°00'15 1.0
2016-Aug-24 03:33N 41°52' W 009°02'1616.4
2016-Aug-24 02:33N 41°36' W 009°08'1616.0
2016-Aug-24 01:31N 41°20' W 009°13'1313.9
2016-Aug-24 00:33N 41°07' W 009°17'1413.3
2016-Aug-23 23:32N 40°54' W 009°20'1413.4
2016-Aug-23 22:30N 40°40' W 009°24'1413.7
2016-Aug-23 21:28N 40°26' W 009°27'1213.6
2016-Aug-23 20:33N 40°14' W 009°32'1413.9
2016-Aug-23 19:33N 40°01' W 009°35'1413.9
2016-Aug-23 18:33N 39°47' W 009°39'2813.9
2016-Aug-23 16:31N 39°19' W 009°46'1414.2
2016-Aug-23 15:33N 39°06' W 009°49'1414.2
2016-Aug-23 14:33N 38°52' W 009°52'1413.9
2016-Aug-23 13:34N 38°38' W 009°50'1413.9
2016-Aug-23 12:33N 38°24' W 009°46'1313.5
2016-Aug-23 11:33N 38°11' W 009°42'1413.5
2016-Aug-23 10:33N 37°58' W 009°38'1313.4
2016-Aug-23 09:33N 37°45' W 009°35'1313.1
2016-Aug-23 08:33N 37°32' W 009°31'1413.6
2016-Aug-23 07:33N 37°19' W 009°27'1616.2
2016-Aug-23 06:34N 37°03' W 009°22'1514.4
2016-Aug-23 05:31N 36°50' W 009°14'19113.7
2016-Aug-22 15:33N 36°04' W 005°23'5 5.1
2016-Aug-22 14:33N 36°09' W 005°22'0 0.0
2016-Aug-22 13:33N 36°09' W 005°22'0 0.0
2016-Aug-22 12:34N 36°09' W 005°22'0 0.0
2016-Aug-22 11:34N 36°09' W 005°22'0 0.0
2016-Aug-22 10:33N 36°09' W 005°22'0 0.0
2016-Aug-22 09:33N 36°09' W 005°22'0 0.0
2016-Aug-22 08:33N 36°09' W 005°22'0 0.0
2016-Aug-22 07:33N 36°09' W 005°22'0 0.0
2016-Aug-22 06:33N 36°09' W 005°22'0 0.0
2016-Aug-22 05:34N 36°09' W 005°22'6 5.6
2016-Aug-22 04:34N 36°06' W 005°16'127 4.1
2016-Aug-20 21:34N 36°29' W 002°41'1615.6
2016-Aug-20 20:33N 36°27' W 002°22'1814.3
2016-Aug-20 19:20N 36°34' W 002°02'1415.5
2016-Aug-20 18:26N 36°45' W 001°51'1515.6
2016-Aug-20 17:30N 36°56' W 001°40'53 4.0
2016-Aug-20 04:11N 37°32' W 000°51'914.1
2016-Aug-20 03:32N 37°35' W 000°40'1514.9
2016-Aug-20 02:34N 37°44' W 000°26'1414.2
2016-Aug-20 01:33N 37°56' W 000°16'1414.0
2016-Aug-20 00:34N 38°08' W 000°06'1313.4
2016-Aug-19 23:33N 38°18' E 000°03'3113.4
2016-Aug-19 21:15N 38°45' E 000°23'5110.4
2016-Aug-19 16:22N 39°25' W 000°18'2 0.2
2016-Aug-19 05:33N 39°27' W 000°19'6411.9
2016-Aug-19 00:08N 39°53' E 000°57'813.8
2016-Aug-18 23:33N 40°00' E 001°02'1513.7
2016-Aug-18 22:29N 40°12' E 001°14'1213.5
2016-Aug-18 21:33N 40°22' E 001°23'1413.6
2016-Aug-18 20:30N 40°34' E 001°33'4614.3
2016-Aug-18 17:18N 41°13' E 002°07'911.4
2016-Aug-18 16:32N 41°21' E 002°10'1 0.6
2016-Aug-18 15:33N 41°21' E 002°11'0 0.0
2016-Aug-18 14:32N 41°21' E 002°11'0 0.0
2016-Aug-18 06:34N 41°21' E 002°10'16412.6
2016-Aug-17 17:33N 43°06' E 005°00'1413.7
2016-Aug-17 16:33N 43°17' E 005°11'7 0.7
2016-Aug-17 06:33N 43°21' E 005°20'7 7.4
2016-Aug-17 05:33N 43°16' E 005°12'  
Track history (hours):
 
Tides and Currents Weather Stations Pressure Air Temp Water Temp Dewpoint Dewpoint Depression Visibility Wind Speed Wind Dir Waves Ship Positions

Thomson Spirit

Last reported at 2016-Aug-26 20:31 UTC. Time now 2016-Aug-27 09:52 UTC.
Position N 37°43' W 009°17'.

Length 214 m; draft 8 m.

Type: Passenger vessel. MMSI: 248368000.

Date/timePositionNaut miles runAvg speedWind from/ knotsBaromVisibWave heightAir tempDewpointWater temp
2016-Aug-26 20:31N 37°43' W 009°17'1616.3
2016-Aug-26 19:33N 37°58' W 009°18'1716.5
2016-Aug-26 18:33N 38°15' W 009°19'1615.9
2016-Aug-26 17:34N 38°31' W 009°20'1211.9
2016-Aug-26 16:34N 38°41' W 009°13'5 4.5
2016-Aug-26 15:32N 38°43' W 009°07'0 0.0
2016-Aug-26 14:33N 38°43' W 009°07'0 0.0
2016-Aug-26 13:33N 38°43' W 009°07'0 0.0
2016-Aug-26 12:33N 38°43' W 009°07'0 0.0
2016-Aug-26 11:32N 38°43' W 009°07'0 0.0
2016-Aug-26 10:33N 38°43' W 009°07'0 0.0
2016-Aug-26 09:33N 38°43' W 009°07'0 0.0
2016-Aug-26 08:33N 38°43' W 009°07'0 0.0
2016-Aug-26 07:33N 38°43' W 009°07'0 0.1
2016-Aug-26 06:33N 38°43' W 009°07'2211.1
2016-Aug-26 04:34N 38°38' W 009°35'1110.7
2016-Aug-26 03:34N 38°46' W 009°44'1313.2
2016-Aug-26 02:33N 38°59' W 009°44'1313.3
2016-Aug-26 01:34N 39°12' W 009°44'1813.3
2016-Aug-26 00:11N 39°31' W 009°44'913.2
2016-Aug-25 23:32N 39°38' W 009°39'1313.6
2016-Aug-25 22:33N 39°50' W 009°32'1613.7
2016-Aug-25 21:22N 40°05' W 009°22'1714.0
2016-Aug-25 20:09N 40°20' W 009°13'81 3.9
2016-Aug-24 23:28N 41°42' W 009°08'6 6.4
2016-Aug-24 22:33N 41°47' W 009°06'7 6.6
2016-Aug-24 21:31N 41°54' W 009°04'7 6.2
2016-Aug-24 20:26N 42°00' W 009°02'7 6.0
2016-Aug-24 19:18N 42°07' W 009°00'15 1.0
2016-Aug-24 03:33N 41°52' W 009°02'1616.4
2016-Aug-24 02:33N 41°36' W 009°08'1616.0
2016-Aug-24 01:31N 41°20' W 009°13'1313.9
2016-Aug-24 00:33N 41°07' W 009°17'1413.3
2016-Aug-23 23:32N 40°54' W 009°20'1413.4
2016-Aug-23 22:30N 40°40' W 009°24'1413.7
2016-Aug-23 21:28N 40°26' W 009°27'1213.6
2016-Aug-23 20:33N 40°14' W 009°32'1413.9
2016-Aug-23 19:33N 40°01' W 009°35'1413.9
2016-Aug-23 18:33N 39°47' W 009°39'2813.9
2016-Aug-23 16:31N 39°19' W 009°46'1414.2
2016-Aug-23 15:33N 39°06' W 009°49'1414.2
2016-Aug-23 14:33N 38°52' W 009°52'1413.9
2016-Aug-23 13:34N 38°38' W 009°50'1413.9
2016-Aug-23 12:33N 38°24' W 009°46'1313.5
2016-Aug-23 11:33N 38°11' W 009°42'1413.5
2016-Aug-23 10:33N 37°58' W 009°38'1313.4
2016-Aug-23 09:33N 37°45' W 009°35'1313.1
2016-Aug-23 08:33N 37°32' W 009°31'1413.6
2016-Aug-23 07:33N 37°19' W 009°27'1616.2
2016-Aug-23 06:34N 37°03' W 009°22'1514.4
2016-Aug-23 05:31N 36°50' W 009°14'19113.7
2016-Aug-22 15:33N 36°04' W 005°23'5 5.1
2016-Aug-22 14:33N 36°09' W 005°22'0 0.0
2016-Aug-22 13:33N 36°09' W 005°22'0 0.0
2016-Aug-22 12:34N 36°09' W 005°22'0 0.0
2016-Aug-22 11:34N 36°09' W 005°22'0 0.0
2016-Aug-22 10:33N 36°09' W 005°22'0 0.0
2016-Aug-22 09:33N 36°09' W 005°22'0 0.0
2016-Aug-22 08:33N 36°09' W 005°22'0 0.0
2016-Aug-22 07:33N 36°09' W 005°22'0 0.0
2016-Aug-22 06:33N 36°09' W 005°22'0 0.0
2016-Aug-22 05:34N 36°09' W 005°22'6 5.6
2016-Aug-22 04:34N 36°06' W 005°16'127 4.1
2016-Aug-20 21:34N 36°29' W 002°41'1615.6
2016-Aug-20 20:33N 36°27' W 002°22'1814.3
2016-Aug-20 19:20N 36°34' W 002°02'1415.5
2016-Aug-20 18:26N 36°45' W 001°51'1515.6
2016-Aug-20 17:30N 36°56' W 001°40'53 4.0
2016-Aug-20 04:11N 37°32' W 000°51'914.1
2016-Aug-20 03:32N 37°35' W 000°40'1514.9
2016-Aug-20 02:34N 37°44' W 000°26'1414.2
2016-Aug-20 01:33N 37°56' W 000°16'1414.0
2016-Aug-20 00:34N 38°08' W 000°06'1313.4
2016-Aug-19 23:33N 38°18' E 000°03'3113.4
2016-Aug-19 21:15N 38°45' E 000°23'5110.4
2016-Aug-19 16:22N 39°25' W 000°18'2 0.2
2016-Aug-19 05:33N 39°27' W 000°19'6411.9
2016-Aug-19 00:08N 39°53' E 000°57'813.8
2016-Aug-18 23:33N 40°00' E 001°02'1513.7
2016-Aug-18 22:29N 40°12' E 001°14'1213.5
2016-Aug-18 21:33N 40°22' E 001°23'1413.6
2016-Aug-18 20:30N 40°34' E 001°33'4614.3
2016-Aug-18 17:18N 41°13' E 002°07'911.4
2016-Aug-18 16:32N 41°21' E 002°10'1 0.6
2016-Aug-18 15:33N 41°21' E 002°11'0 0.0
2016-Aug-18 14:32N 41°21' E 002°11'0 0.0
2016-Aug-18 06:34N 41°21' E 002°10'16412.6
2016-Aug-17 17:33N 43°06' E 005°00'1413.7
2016-Aug-17 16:33N 43°17' E 005°11'7 0.7
2016-Aug-17 06:33N 43°21' E 005°20'7 7.4
2016-Aug-17 05:33N 43°16' E 005°12'  

Dump ship's entire track history